| time (UTC) | temp C | wind direction | speed KPH | gust KPH | rain 1hr cm | rain 24hr cm | rain mn cm | humidity % | barometer mb |
| 20260508003037 | 27 | 90 | 24.1 | 33.8 | 0.00 | 0.61 | 0.61 | 86 | 206.0 |
| 20260508001545 | 27 | 108 | 24.1 | 30.6 | 0.00 | 0.61 | 0.61 | 85 | 206.0 |
| 20260508000045 | 28 | 103 | 19.3 | 24.1 | 0.00 | 0.61 | 0.61 | 86 | 206.0 |
| 20260507234543 | 28 | 146 | 14.5 | 20.9 | 0.00 | 0.61 | 0.61 | 86 | 206.0 |
| 20260507233041 | 27 | 146 | 16.1 | 20.9 | 0.00 | 0.61 | 0.61 | 85 | 206.0 |
| 20260507231535 | 27 | 153 | 12.9 | 20.9 | 0.00 | 0.61 | 0.61 | 86 | 206.0 |
| 20260507230034 | 28 | 149 | 12.9 | 19.3 | 0.00 | 0.61 | 0.61 | 87 | 206.0 |
| 20260507224541 | 28 | 139 | 11.3 | 17.7 | 0.00 | 0.61 | 0.61 | 86 | 206.0 |
| 20260507223041 | 28 | 141 | 11.3 | 19.3 | 0.00 | 0.61 | 0.61 | 84 | 206.0 |
| 20260507221536 | 28 | 152 | 12.9 | 20.9 | 0.00 | 0.61 | 0.61 | 83 | 206.0 |
| 20260507220044 | 30 | 131 | 12.9 | 20.9 | 0.00 | 0.61 | 0.61 | 79 | 206.0 |
| 20260507214602 | 30 | 149 | 16.1 | 20.9 | 0.00 | 0.61 | 0.61 | 78 | 206.0 |
| 20260507213041 | 30 | 155 | 12.9 | 19.3 | 0.00 | 0.61 | 0.61 | 77 | 206.0 |
| 20260507211536 | 30 | 153 | 16.1 | 20.9 | 0.00 | 0.61 | 0.61 | 77 | 206.0 |
| 20260507210048 | 30 | 160 | 16.1 | 20.9 | 0.00 | 0.61 | 0.61 | 77 | 206.0 |
| 20260507204535 | 30 | 150 | 16.1 | 20.9 | 0.00 | 0.61 | 0.61 | 79 | 206.0 |
| 20260507203051 | 29 | 155 | 14.5 | 20.9 | 0.00 | 0.61 | 0.61 | 80 | 206.0 |
| 20260507201545 | 29 | 124 | 14.5 | 19.3 | 0.00 | 0.61 | 0.61 | 82 | 206.0 |
| 20260507200039 | 28 | 160 | 14.5 | 19.3 | 0.00 | 0.61 | 0.61 | 82 | 206.0 |
| 20260507194613 | 29 | 146 | 14.5 | 19.3 | 0.00 | 0.61 | 0.61 | 81 | 206.0 |
| 20260507193042 | 29 | 146 | 14.5 | 19.3 | 0.00 | 0.61 | 0.61 | 83 | 206.0 |
| 20260507191544 | 29 | 139 | 16.1 | 19.3 | 0.00 | 0.61 | 0.61 | 81 | 206.0 |
| 20260507190040 | 29 | 150 | 16.1 | 20.9 | 0.00 | 0.61 | 0.61 | 82 | 206.0 |
| 20260507184544 | 29 | 157 | 14.5 | 20.9 | 0.00 | 0.61 | 0.61 | 82 | 206.0 |
| 20260507183042 | 29 | 165 | 16.1 | 22.5 | 0.00 | 0.61 | 0.61 | 80 | 206.0 |
| 20260507181543 | 29 | 154 | 16.1 | 20.9 | 0.00 | 0.61 | 0.61 | 81 | 206.0 |
| 20260507180041 | 29 | 160 | 16.1 | 22.5 | 0.00 | 0.61 | 0.61 | 82 | 206.0 |
| 20260507174543 | 29 | 125 | 17.7 | 22.5 | 0.00 | 0.61 | 0.61 | 80 | 206.0 |
| 20260507173046 | 30 | 150 | 16.1 | 22.5 | 0.00 | 0.61 | 0.61 | 79 | 206.0 |
| 20260507171550 | 30 | 155 | 17.7 | 24.1 | 0.00 | 0.61 | 0.61 | 79 | 206.0 |
| 20260507170042 | 30 | 141 | 17.7 | 27.4 | 0.00 | 0.61 | 0.61 | 79 | 206.0 |
| 20260507164542 | 30 | 212 | 17.7 | 27.4 | 0.00 | 0.61 | 0.61 | 77 | 206.0 |
| 20260507163041 | 29 | 195 | 19.3 | 25.7 | 0.00 | 0.61 | 0.61 | 79 | 206.0 |
| 20260507161539 | 29 | 164 | 19.3 | 25.7 | 0.00 | 0.61 | 0.61 | 79 | 206.0 |
| 20260507160036 | 29 | 155 | 20.9 | 25.7 | 0.00 | 0.61 | 0.61 | 79 | 206.0 |
| 20260507154541 | 28 | 161 | 20.9 | 25.7 | 0.00 | 0.61 | 0.61 | 81 | 206.0 |
| 20260507153045 | 28 | 138 | 22.5 | 25.7 | 0.00 | 0.61 | 0.61 | 80 | 206.0 |
| 20260507151540 | 28 | 159 | 19.3 | 27.4 | 0.00 | 0.61 | 0.61 | 81 | 206.0 |
| 20260507150040 | 29 | 160 | 19.3 | 25.7 | 0.00 | 0.61 | 0.61 | 81 | 206.0 |
| 20260507144544 | 28 | 151 | 20.9 | 25.7 | 0.00 | 0.61 | 0.61 | 84 | 206.0 |
| 20260507143043 | 28 | 145 | 19.3 | 25.7 | 0.00 | 0.61 | 0.61 | 85 | 206.0 |
| 20260507141543 | 28 | 153 | 20.9 | 25.7 | 0.00 | 0.61 | 0.61 | 85 | 206.0 |
| 20260507140040 | 28 | 153 | 20.9 | 25.7 | 0.00 | 0.61 | 0.61 | 85 | 206.0 |
| 20260507134538 | 28 | 164 | 20.9 | 25.7 | 0.00 | 0.61 | 0.61 | 86 | 206.0 |
| 20260507133047 | 27 | 162 | 17.7 | 24.1 | 0.00 | 0.61 | 0.61 | 88 | 206.0 |
| 20260507131601 | 27 | 143 | 17.7 | 22.5 | 0.00 | 0.61 | 0.61 | 87 | 206.0 |
| 20260507130043 | 27 | 120 | 20.9 | 25.7 | 0.30 | 0.61 | 0.61 | 89 | 206.0 |
| 20260507124543 | 26 | 108 | 19.3 | 27.4 | 0.61 | 0.61 | 0.61 | 91 | 206.0 |
| 20260507123043 | 26 | 127 | 22.5 | 30.6 | 0.61 | 0.61 | 0.61 | 93 | 206.0 |
| 20260507121545 | 26 | 120 | 9.7 | 22.5 | 0.61 | 0.61 | 0.61 | 94 | 206.0 |
| 20260507120043 | 26 | 115 | 8.0 | 20.9 | 0.25 | 0.25 | 0.25 | 91 | 206.0 |
| 20260507114545 | 27 | 113 | 17.7 | 25.7 | 0.00 | 0.00 | 0.00 | 88 | 206.0 |
| 20260507113040 | 27 | 124 | 17.7 | 25.7 | 0.00 | 0.00 | 0.00 | 88 | 206.0 |
| 20260507111539 | 27 | 96 | 20.9 | 29.0 | 0.00 | 0.00 | 0.00 | 88 | 206.0 |
| 20260507110037 | 27 | 117 | 22.5 | 30.6 | 0.00 | 0.00 | 0.00 | 89 | 206.0 |
| 20260507104544 | 26 | 97 | 20.9 | 30.6 | 0.00 | 0.00 | 0.00 | 90 | 206.0 |
| 20260507103042 | 26 | 120 | 19.3 | 29.0 | 0.00 | 0.00 | 0.00 | 90 | 206.0 |
| 20260507101540 | 26 | 105 | 17.7 | 27.4 | 0.00 | 0.00 | 0.00 | 91 | 206.0 |
| 20260507100036 | 26 | 114 | 19.3 | 25.7 | 0.00 | 0.00 | 0.00 | 90 | 206.0 |
| 20260507094544 | 26 | 112 | 19.3 | 25.7 | 0.00 | 0.00 | 0.00 | 90 | 206.0 |
| 20260507093048 | 26 | 97 | 20.9 | 27.4 | 0.00 | 0.00 | 0.00 | 91 | 206.0 |
| 20260507091541 | 26 | 105 | 20.9 | 25.7 | 0.00 | 0.00 | 0.00 | 90 | 206.0 |
| 20260507090040 | 26 | 103 | 20.9 | 30.6 | 0.00 | 0.00 | 0.00 | 90 | 206.0 |
| 20260507084547 | 26 | 110 | 20.9 | 29.0 | 0.00 | 0.00 | 0.00 | 90 | 206.0 |
| 20260507083036 | 26 | 107 | 22.5 | 30.6 | 0.00 | 0.00 | 0.00 | 89 | 206.0 |
| 20260507081541 | 26 | 112 | 24.1 | 29.0 | 0.00 | 0.00 | 0.00 | 90 | 206.0 |
| 20260507080042 | 26 | 120 | 24.1 | 32.2 | 0.00 | 0.00 | 0.00 | 92 | 206.0 |
| 20260507074541 | 26 | 120 | 22.5 | 29.0 | 0.00 | 0.00 | 0.00 | 91 | 206.0 |
| 20260507073039 | 26 | 119 | 22.5 | 29.0 | 0.00 | 0.00 | 0.00 | 92 | 206.0 |
| 20260507071603 | 26 | 99 | 22.5 | 29.0 | 0.00 | 0.00 | 0.00 | 92 | 206.0 |
| 20260507070045 | 26 | 102 | 22.5 | 29.0 | 0.00 | 0.00 | 0.00 | 90 | 206.0 |
| 20260507064543 | 26 | 118 | 22.5 | 30.6 | 0.00 | 0.00 | 0.00 | 89 | 206.0 |
| 20260507063045 | 26 | 101 | 22.5 | 32.2 | 0.00 | 0.00 | 0.00 | 90 | 206.0 |
| 20260507061535 | 26 | 103 | 24.1 | 30.6 | 0.00 | 0.00 | 0.00 | 90 | 206.0 |
| 20260507060038 | 26 | 110 | 22.5 | 30.6 | 0.00 | 0.00 | 0.00 | 90 | 206.0 |
| 20260507054542 | 26 | 109 | 20.9 | 30.6 | 0.00 | 0.00 | 0.00 | 89 | 206.0 |
| 20260507053109 | 26 | 105 | 20.9 | 32.2 | 0.00 | 0.00 | 0.00 | 90 | 206.0 |
| 20260507051544 | 26 | 117 | 22.5 | 29.0 | 0.00 | 0.00 | 0.00 | 90 | 206.0 |
| 20260507050044 | 26 | 116 | 20.9 | 29.0 | 0.00 | 0.00 | 0.00 | 90 | 206.0 |
| 20260507044544 | 26 | 110 | 20.9 | 29.0 | 0.00 | 0.00 | 0.00 | 91 | 206.0 |
| 20260507043042 | 26 | 101 | 19.3 | 27.4 | 0.00 | 0.00 | 0.00 | 90 | 206.0 |
| 20260507041546 | 26 | 124 | 19.3 | 27.4 | 0.00 | 0.00 | 0.00 | 90 | 206.0 |
| 20260507040045 | 26 | 108 | 20.9 | 29.0 | 0.00 | 0.00 | 0.00 | 91 | 206.0 |
| 20260507034538 | 26 | 99 | 20.9 | 30.6 | 0.00 | 0.00 | 0.00 | 91 | 206.0 |
| 20260507033043 | 26 | 112 | 25.7 | 30.6 | 0.00 | 0.00 | 0.00 | 92 | 206.0 |
| 20260507031541 | 26 | 96 | 22.5 | 30.6 | 0.00 | 0.00 | 0.00 | 90 | 206.0 |
| 20260507030046 | 27 | 94 | 20.9 | 29.0 | 0.00 | 0.00 | 0.00 | 91 | 206.0 |
| 20260507024542 | 26 | 90 | 20.9 | 30.6 | 0.00 | 0.00 | 0.00 | 91 | 206.0 |
| 20260507023040 | 27 | 102 | 24.1 | 29.0 | 0.00 | 0.00 | 0.00 | 91 | 206.0 |
| 20260507021546 | 27 | 100 | 22.5 | 29.0 | 0.00 | 0.00 | 0.00 | 91 | 206.0 |
| 20260507020044 | 27 | 117 | 19.3 | 32.2 | 0.00 | 0.00 | 0.00 | 90 | 206.0 |
| 20260507014551 | 27 | 101 | 24.1 | 32.2 | 0.00 | 0.00 | 0.00 | 91 | 206.0 |
| 20260507013048 | 27 | 122 | 22.5 | 29.0 | 0.00 | 0.00 | 0.00 | 91 | 206.0 |
| 20260507011542 | 27 | 89 | 22.5 | 30.6 | 0.00 | 0.00 | 0.00 | 90 | 206.0 |
| 20260507010037 | 27 | 98 | 22.5 | 29.0 | 0.00 | 0.00 | 0.00 | 91 | 206.0 |
| 20260507004546 | 27 | 98 | 22.5 | 32.2 | 0.00 | 0.00 | 0.00 | 90 | 206.0 |